createdAt,value
2018-03-26T00:00:44.024Z,6.00
2018-03-26T00:01:46.477Z,6.10
2018-03-26T00:02:48.944Z,6.00
2018-03-26T00:03:51.416Z,6.10
2018-03-26T00:04:53.896Z,6.10
2018-03-26T00:05:56.381Z,6.10
2018-03-26T00:06:59.178Z,6.10
2018-03-26T00:08:01.665Z,6.10
2018-03-26T00:09:04.894Z,6.00
2018-03-26T00:10:08.138Z,6.00
2018-03-26T00:11:11.424Z,6.00
2018-03-26T00:12:13.918Z,6.00
2018-03-26T00:13:17.165Z,5.90
2018-03-26T00:14:19.624Z,5.90
2018-03-26T00:15:22.095Z,5.90
2018-03-26T00:16:25.356Z,5.90
2018-03-26T00:17:27.842Z,5.90
2018-03-26T00:18:30.314Z,5.90
2018-03-26T00:19:33.546Z,5.90
2018-03-26T00:20:36.011Z,5.90
2018-03-26T00:21:38.496Z,5.90
2018-03-26T00:22:41.033Z,5.90
2018-03-26T00:23:43.570Z,5.90
2018-03-26T00:24:46.041Z,5.90
2018-03-26T00:25:48.610Z,5.80
2018-03-26T00:26:51.147Z,5.80
2018-03-26T00:27:53.630Z,5.80
2018-03-26T00:28:56.096Z,5.80
2018-03-26T00:29:58.590Z,5.80
2018-03-26T00:31:01.868Z,5.80
2018-03-26T00:32:04.332Z,5.80
2018-03-26T00:33:06.900Z,5.80
2018-03-26T00:34:09.384Z,5.80
2018-03-26T00:35:12.909Z,5.80
2018-03-26T00:36:15.522Z,5.80
2018-03-26T00:37:18.010Z,5.80
2018-03-26T00:38:21.255Z,5.80
2018-03-26T00:39:24.481Z,5.90
2018-03-26T00:40:26.956Z,5.90
2018-03-26T00:41:29.465Z,5.90
2018-03-26T00:42:32.388Z,5.90
2018-03-26T00:43:34.933Z,5.90
2018-03-26T00:44:37.423Z,5.80
2018-03-26T00:45:40.669Z,5.80
2018-03-26T00:46:43.935Z,5.80
2018-03-26T00:47:46.450Z,5.80
2018-03-26T00:48:49.732Z,5.70
2018-03-26T00:49:52.198Z,5.70
2018-03-26T00:50:54.758Z,5.70
2018-03-26T00:51:57.247Z,5.70
2018-03-26T00:53:01.223Z,5.70
2018-03-26T00:54:04.470Z,5.70
2018-03-26T00:55:07.758Z,5.70
2018-03-26T00:56:11.254Z,5.70
2018-03-26T00:57:14.528Z,5.70
2018-03-26T00:58:17.019Z,5.70
2018-03-26T00:59:20.259Z,5.70
2018-03-26T01:00:22.726Z,5.70
2018-03-26T01:01:25.245Z,5.70
2018-03-26T01:02:27.748Z,5.70
2018-03-26T01:03:30.985Z,5.70
2018-03-26T01:04:34.228Z,5.60
2018-03-26T01:05:37.483Z,5.60
2018-03-26T01:06:39.978Z,5.60
2018-03-26T01:07:42.474Z,5.60
2018-03-26T01:08:44.937Z,5.60
2018-03-26T01:09:48.186Z,5.60
2018-03-26T01:10:51.423Z,5.60
2018-03-26T01:11:54.708Z,5.60
2018-03-26T01:12:57.187Z,5.60
2018-03-26T01:14:00.422Z,5.60
2018-03-26T01:15:02.898Z,5.60
2018-03-26T01:16:05.362Z,5.60
2018-03-26T01:17:07.856Z,5.70
2018-03-26T01:18:10.349Z,5.60
2018-03-26T01:19:13.576Z,5.60
2018-03-26T01:20:16.840Z,5.60
2018-03-26T01:21:19.329Z,5.60
2018-03-26T01:22:22.511Z,5.60
2018-03-26T01:23:25.019Z,5.60
2018-03-26T01:24:28.255Z,5.60
2018-03-26T01:25:31.490Z,5.50
2018-03-26T01:26:34.727Z,5.50
2018-03-26T01:27:37.967Z,5.50
2018-03-26T01:28:41.244Z,5.50
2018-03-26T01:29:43.717Z,5.50
2018-03-26T01:30:46.207Z,5.50
2018-03-26T01:31:48.660Z,5.50
2018-03-26T01:32:51.161Z,5.50
2018-03-26T01:33:53.660Z,5.50
2018-03-26T01:34:56.915Z,5.50
2018-03-26T01:35:59.431Z,5.50
2018-03-26T01:37:01.986Z,5.50
2018-03-26T01:38:04.496Z,5.50
2018-03-26T01:39:07.006Z,5.50
2018-03-26T01:40:10.257Z,5.40
2018-03-26T01:41:12.739Z,5.40
2018-03-26T01:42:15.219Z,5.40
2018-03-26T01:43:17.819Z,5.40
2018-03-26T01:44:21.107Z,5.40
2018-03-26T01:45:23.659Z,5.40
2018-03-26T01:46:26.186Z,5.40
2018-03-26T01:47:29.530Z,5.40
2018-03-26T01:48:32.005Z,5.30
2018-03-26T01:49:34.471Z,5.40
2018-03-26T01:50:36.975Z,5.40
2018-03-26T01:51:39.461Z,5.30
2018-03-26T01:52:42.707Z,5.40
2018-03-26T01:53:45.935Z,5.30
2018-03-26T01:54:49.203Z,5.30
2018-03-26T01:55:51.706Z,5.30
2018-03-26T01:56:54.999Z,5.30
2018-03-26T01:57:57.517Z,5.30
2018-03-26T01:59:00.196Z,5.30
2018-03-26T02:00:02.653Z,5.30
2018-03-26T02:01:05.159Z,5.30
2018-03-26T02:02:08.422Z,5.30
2018-03-26T02:03:10.912Z,5.30
2018-03-26T02:04:13.470Z,5.40
2018-03-26T02:05:16.360Z,5.40
2018-03-26T02:06:18.834Z,5.50
2018-03-26T02:07:21.314Z,5.50
2018-03-26T02:08:23.778Z,5.50
2018-03-26T02:09:26.279Z,5.50
2018-03-26T02:10:28.744Z,5.50
2018-03-26T02:11:31.210Z,5.50
2018-03-26T02:12:33.673Z,5.50
2018-03-26T02:13:36.205Z,5.40
2018-03-26T02:14:38.695Z,5.40
2018-03-26T02:15:41.178Z,5.40
2018-03-26T02:16:43.723Z,5.40
2018-03-26T02:17:46.236Z,5.30
2018-03-26T02:18:48.731Z,5.30
2018-03-26T02:19:51.221Z,5.30
2018-03-26T02:20:53.743Z,5.30
2018-03-26T02:21:56.227Z,5.30
2018-03-26T02:22:58.709Z,5.30
2018-03-26T02:24:02.015Z,5.30
2018-03-26T02:25:04.494Z,5.30
2018-03-26T02:26:07.726Z,5.30
2018-03-26T02:27:10.969Z,5.30
2018-03-26T02:28:14.224Z,5.30
2018-03-26T02:29:16.739Z,5.30
2018-03-26T02:30:19.260Z,5.30
2018-03-26T02:31:22.495Z,5.40
2018-03-26T02:32:24.975Z,5.40
2018-03-26T02:33:27.536Z,5.40
2018-03-26T02:34:30.099Z,5.40
2018-03-26T02:35:32.593Z,5.40
2018-03-26T02:36:35.064Z,5.40
2018-03-26T02:37:37.559Z,5.30
2018-03-26T02:38:40.820Z,5.30
2018-03-26T02:39:43.330Z,5.30
2018-03-26T02:40:46.594Z,5.20
2018-03-26T02:41:49.082Z,5.20
2018-03-26T02:42:51.538Z,5.20
2018-03-26T02:43:54.670Z,5.20
2018-03-26T02:44:58.066Z,5.20
2018-03-26T02:46:00.658Z,5.20
2018-03-26T02:47:03.129Z,5.20
2018-03-26T02:48:07.121Z,5.20
2018-03-26T02:49:10.376Z,5.20
2018-03-26T02:50:12.885Z,5.20
2018-03-26T02:51:16.144Z,5.20
2018-03-26T02:52:18.662Z,5.20
2018-03-26T02:53:21.198Z,5.30
2018-03-26T02:54:23.692Z,5.30
2018-03-26T02:55:26.265Z,5.30
2018-03-26T02:56:28.727Z,5.30
2018-03-26T02:57:31.189Z,5.40
2018-03-26T02:58:34.459Z,5.40
2018-03-26T02:59:36.932Z,5.40
2018-03-26T03:00:39.476Z,5.30
2018-03-26T03:01:42.717Z,5.20
2018-03-26T03:02:45.952Z,5.20
2018-03-26T03:03:49.218Z,5.20
2018-03-26T03:04:51.680Z,5.20
2018-03-26T03:05:54.218Z,5.20
2018-03-26T03:06:56.677Z,5.20
2018-03-26T03:07:59.925Z,5.20
2018-03-26T03:09:03.160Z,5.30
2018-03-26T03:10:06.719Z,5.30
2018-03-26T03:11:09.981Z,5.30
2018-03-26T03:12:12.456Z,5.30
2018-03-26T03:13:14.930Z,5.40
2018-03-26T03:14:17.401Z,5.40
2018-03-26T03:15:20.576Z,5.50
2018-03-26T03:16:23.819Z,5.50
2018-03-26T03:17:26.303Z,5.50
2018-03-26T03:18:28.809Z,5.50
2018-03-26T03:19:31.282Z,5.50
2018-03-26T03:20:34.567Z,5.50
2018-03-26T03:21:37.043Z,5.50
2018-03-26T03:22:40.315Z,5.50
2018-03-26T03:23:42.850Z,5.50
2018-03-26T03:24:45.429Z,5.60
2018-03-26T03:25:47.935Z,5.60
2018-03-26T03:26:50.614Z,5.60
2018-03-26T03:27:53.647Z,5.60
2018-03-26T03:28:56.958Z,5.60
2018-03-26T03:30:00.246Z,5.60
2018-03-26T03:31:03.487Z,5.60
2018-03-26T03:32:06.007Z,5.60
2018-03-26T03:33:09.243Z,5.70
2018-03-26T03:34:12.473Z,5.70
2018-03-26T03:35:14.955Z,5.60
2018-03-26T03:36:18.212Z,5.70
2018-03-26T03:37:21.464Z,5.70
2018-03-26T03:38:24.021Z,5.70
2018-03-26T03:39:27.254Z,5.60
2018-03-26T03:40:30.516Z,5.60
2018-03-26T03:41:32.996Z,5.60
2018-03-26T03:42:35.471Z,5.60
2018-03-26T03:43:37.961Z,5.60
2018-03-26T03:44:41.193Z,5.60
2018-03-26T03:45:43.729Z,5.60
2018-03-26T03:46:46.211Z,5.60
2018-03-26T03:47:48.716Z,5.60
2018-03-26T03:48:51.210Z,5.70
2018-03-26T03:49:54.473Z,5.60
2018-03-26T03:50:56.987Z,5.70
2018-03-26T03:52:00.213Z,5.70
2018-03-26T03:53:02.734Z,5.70
2018-03-26T03:54:05.209Z,5.70
2018-03-26T03:55:07.665Z,5.70
2018-03-26T03:56:10.155Z,5.70
2018-03-26T03:57:12.619Z,5.70
2018-03-26T03:58:15.144Z,5.70
2018-03-26T03:59:18.376Z,5.70
2018-03-26T04:00:20.949Z,5.70
2018-03-26T04:01:24.220Z,5.70
2018-03-26T04:02:26.687Z,5.70
2018-03-26T04:03:29.155Z,5.70
2018-03-26T04:04:31.642Z,5.70
2018-03-26T04:05:34.169Z,5.60
2018-03-26T04:06:36.655Z,5.60
2018-03-26T04:07:39.144Z,5.60
2018-03-26T04:08:42.419Z,5.60
2018-03-26T04:09:44.893Z,5.60
2018-03-26T04:10:47.386Z,5.60
2018-03-26T04:11:49.860Z,5.70
2018-03-26T04:12:53.118Z,5.70
2018-03-26T04:13:55.624Z,5.70
2018-03-26T04:14:58.861Z,5.70
2018-03-26T04:16:02.099Z,5.70
2018-03-26T04:17:04.604Z,5.70
2018-03-26T04:18:07.071Z,5.70
2018-03-26T04:19:10.303Z,5.60
2018-03-26T04:20:13.547Z,5.60
2018-03-26T04:21:16.811Z,5.70
2018-03-26T04:22:19.291Z,5.70
2018-03-26T04:23:21.747Z,5.70
2018-03-26T04:24:24.969Z,5.70
2018-03-26T04:25:28.217Z,5.70
2018-03-26T04:26:31.484Z,5.70
2018-03-26T04:27:34.057Z,5.70
2018-03-26T04:28:36.536Z,5.70
2018-03-26T04:29:39.024Z,5.70
2018-03-26T04:30:42.305Z,5.60
2018-03-26T04:31:44.818Z,5.60
2018-03-26T04:32:48.072Z,5.60
2018-03-26T04:33:50.591Z,5.60
2018-03-26T04:34:53.070Z,5.60
2018-03-26T04:35:55.545Z,5.60
2018-03-26T04:36:58.376Z,5.50
2018-03-26T04:38:00.899Z,5.50
2018-03-26T04:39:03.366Z,5.60
2018-03-26T04:40:05.878Z,5.50
2018-03-26T04:41:08.357Z,5.50
2018-03-26T04:42:11.620Z,5.50
2018-03-26T04:43:14.864Z,5.50
2018-03-26T04:44:17.567Z,5.40
2018-03-26T04:45:20.046Z,5.40
2018-03-26T04:46:22.522Z,5.40
2018-03-26T04:47:25.897Z,5.40
2018-03-26T04:48:28.388Z,5.40
2018-03-26T04:49:31.634Z,5.40
2018-03-26T04:50:34.152Z,5.40
2018-03-26T04:51:37.432Z,5.40
2018-03-26T04:52:39.931Z,5.40
2018-03-26T04:53:43.176Z,5.40
2018-03-26T04:54:46.439Z,5.40
2018-03-26T04:55:48.911Z,5.40
2018-03-26T04:56:51.410Z,5.40
2018-03-26T04:57:54.035Z,5.50
2018-03-26T04:58:56.495Z,5.50
2018-03-26T04:59:58.983Z,5.50
2018-03-26T05:01:01.511Z,5.50
2018-03-26T05:02:03.971Z,5.50
2018-03-26T05:03:06.488Z,5.50
2018-03-26T05:04:08.973Z,5.50
2018-03-26T05:05:11.443Z,5.60
2018-03-26T05:06:14.082Z,5.60
2018-03-26T05:07:16.550Z,5.60
2018-03-26T05:08:19.049Z,5.60
2018-03-26T05:09:22.281Z,5.60
2018-03-26T05:10:25.600Z,5.50
2018-03-26T05:11:28.049Z,5.50
2018-03-26T05:12:31.328Z,5.60
2018-03-26T05:13:33.842Z,5.50
2018-03-26T05:14:37.527Z,5.60
2018-03-26T05:15:40.001Z,5.60
2018-03-26T05:16:43.275Z,5.50
2018-03-26T05:17:45.741Z,5.50
2018-03-26T05:18:48.232Z,5.40
2018-03-26T05:19:50.734Z,5.40
2018-03-26T05:20:53.952Z,5.30
2018-03-26T05:21:56.518Z,5.30
2018-03-26T05:22:59.001Z,5.30
2018-03-26T05:24:01.485Z,5.30
2018-03-26T05:25:04.110Z,5.30
2018-03-26T05:26:06.604Z,5.30
2018-03-26T05:27:09.910Z,5.30
2018-03-26T05:28:12.347Z,5.30
2018-03-26T05:29:16.353Z,5.30
2018-03-26T05:30:18.834Z,5.40
2018-03-26T05:31:21.294Z,5.30
2018-03-26T05:32:23.779Z,5.30
2018-03-26T05:33:26.261Z,5.30
2018-03-26T05:34:28.731Z,5.30
2018-03-26T05:35:31.203Z,5.30
2018-03-26T05:36:33.686Z,5.30
2018-03-26T05:37:36.962Z,5.40
2018-03-26T05:38:39.463Z,5.30
2018-03-26T05:39:42.057Z,5.40
2018-03-26T05:40:44.549Z,5.40
2018-03-26T05:41:47.014Z,5.40
2018-03-26T05:42:49.488Z,5.40
2018-03-26T05:43:51.953Z,5.40
2018-03-26T05:44:54.439Z,5.40
2018-03-26T05:45:56.962Z,5.40
2018-03-26T05:46:59.424Z,5.40
2018-03-26T05:48:01.915Z,5.40
2018-03-26T05:49:04.391Z,5.40
2018-03-26T05:50:06.868Z,5.40
2018-03-26T05:51:09.400Z,5.40
2018-03-26T05:52:11.889Z,5.40
2018-03-26T05:53:14.343Z,5.50
2018-03-26T05:54:16.831Z,5.50
2018-03-26T05:55:19.298Z,5.50
2018-03-26T05:56:22.547Z,5.50
2018-03-26T05:57:25.544Z,5.60
2018-03-26T05:58:28.949Z,5.60
2018-03-26T05:59:31.439Z,5.60
2018-03-26T06:00:33.922Z,5.60
2018-03-26T06:01:36.391Z,5.60
2018-03-26T06:02:38.859Z,5.60
2018-03-26T06:03:41.333Z,5.50
2018-03-26T06:04:43.968Z,5.60
2018-03-26T06:05:46.465Z,5.60
2018-03-26T06:06:49.936Z,5.60
2018-03-26T06:07:52.456Z,5.60
2018-03-26T06:08:54.987Z,5.60
2018-03-26T06:09:58.425Z,5.60
2018-03-26T06:11:01.669Z,5.60
2018-03-26T06:12:04.908Z,5.60
2018-03-26T06:13:08.157Z,5.60
2018-03-26T06:14:11.391Z,5.60
2018-03-26T06:15:14.620Z,5.70
2018-03-26T06:16:17.881Z,5.80
2018-03-26T06:17:20.785Z,5.80
2018-03-26T06:18:23.260Z,5.80
2018-03-26T06:19:25.781Z,5.90
2018-03-26T06:20:29.032Z,5.90
2018-03-26T06:21:31.498Z,5.90
2018-03-26T06:22:33.984Z,5.90
2018-03-26T06:23:36.507Z,5.90
2018-03-26T06:24:38.985Z,5.90
2018-03-26T06:25:41.465Z,6.00
2018-03-26T06:26:43.972Z,6.00
2018-03-26T06:27:46.474Z,6.00
2018-03-26T06:28:49.714Z,6.00
2018-03-26T06:29:52.955Z,6.00
2018-03-26T06:30:56.235Z,6.00
2018-03-26T06:31:58.700Z,6.00
2018-03-26T06:33:01.162Z,6.00
2018-03-26T06:34:03.623Z,6.10
2018-03-26T06:35:06.119Z,6.20
2018-03-26T06:36:14.286Z,6.20
2018-03-26T06:37:22.428Z,6.20
2018-03-26T06:38:30.620Z,6.30
2018-03-26T06:39:33.135Z,6.40
2018-03-26T06:40:35.620Z,6.30
2018-03-26T06:41:38.960Z,6.30
2018-03-26T06:42:42.186Z,6.30
2018-03-26T06:43:44.673Z,6.30
2018-03-26T06:44:47.139Z,6.30
2018-03-26T06:45:49.599Z,6.30
2018-03-26T06:46:52.078Z,6.30
2018-03-26T06:47:54.549Z,6.30
2018-03-26T06:48:57.082Z,6.20
2018-03-26T06:49:59.560Z,6.20
2018-03-26T06:51:02.030Z,6.20
2018-03-26T06:52:04.505Z,6.20
2018-03-26T06:53:07.010Z,6.20
2018-03-26T06:54:09.550Z,6.20
2018-03-26T06:55:13.651Z,6.20
2018-03-26T06:56:16.211Z,6.20
2018-03-26T06:57:18.708Z,6.20
2018-03-26T06:58:21.196Z,6.20
2018-03-26T06:59:25.223Z,6.20
2018-03-26T07:00:27.694Z,6.20
2018-03-26T07:01:30.932Z,6.20
2018-03-26T07:02:34.192Z,6.20
2018-03-26T07:03:37.446Z,6.30
2018-03-26T07:04:39.904Z,6.20
2018-03-26T07:05:42.392Z,6.30
2018-03-26T07:06:44.884Z,6.30
2018-03-26T07:07:47.378Z,6.30
2018-03-26T07:08:49.836Z,6.40
2018-03-26T07:09:52.302Z,6.40
2018-03-26T07:10:54.768Z,6.50
2018-03-26T07:11:57.271Z,6.50
2018-03-26T07:12:59.742Z,6.50
2018-03-26T07:14:03.006Z,6.70
2018-03-26T07:15:06.258Z,6.70
2018-03-26T07:16:08.725Z,6.70
2018-03-26T07:17:11.211Z,6.70
2018-03-26T07:18:13.697Z,6.70
2018-03-26T07:19:16.201Z,6.80
2018-03-26T07:20:18.679Z,6.80
2018-03-26T07:21:21.171Z,6.80
2018-03-26T07:22:23.664Z,6.90
2018-03-26T07:23:26.975Z,6.90
2018-03-26T07:24:29.472Z,7.00
2018-03-26T07:25:32.841Z,7.20
2018-03-26T07:26:35.328Z,7.20
2018-03-26T07:27:37.800Z,7.30
2018-03-26T07:28:40.274Z,7.30
2018-03-26T07:29:43.503Z,7.40
2018-03-26T07:30:45.981Z,7.40
2018-03-26T07:31:48.615Z,7.50
2018-03-26T07:32:51.256Z,7.60
2018-03-26T07:33:53.881Z,7.60
2018-03-26T07:34:56.376Z,7.60
2018-03-26T07:35:59.677Z,7.70
2018-03-26T07:37:02.224Z,7.70
2018-03-26T07:38:06.249Z,7.80
2018-03-26T07:39:09.669Z,7.80
2018-03-26T07:40:12.155Z,7.80
2018-03-26T07:41:14.726Z,7.80
2018-03-26T07:42:17.250Z,7.80
2018-03-26T07:43:19.739Z,7.80
2018-03-26T07:44:22.264Z,7.80
2018-03-26T07:45:24.804Z,7.80
2018-03-26T07:46:27.282Z,7.80
2018-03-26T07:47:29.774Z,7.80
2018-03-26T07:48:32.323Z,7.80
2018-03-26T07:49:34.867Z,7.80
2018-03-26T07:50:37.361Z,7.80
2018-03-26T07:51:39.912Z,7.80
2018-03-26T07:52:42.713Z,7.80
2018-03-26T07:53:45.321Z,7.80
2018-03-26T07:54:47.827Z,7.80
2018-03-26T07:55:50.305Z,7.80
2018-03-26T07:56:52.805Z,7.80
2018-03-26T07:57:56.066Z,7.90
2018-03-26T07:58:58.560Z,7.90
2018-03-26T08:00:01.078Z,7.90
2018-03-26T08:01:03.600Z,7.90
2018-03-26T08:02:06.818Z,7.90
2018-03-26T08:03:09.280Z,7.90
2018-03-26T08:04:12.526Z,8.00
2018-03-26T08:05:15.790Z,8.10
2018-03-26T08:06:18.267Z,8.00
2018-03-26T08:07:21.073Z,8.10
2018-03-26T08:08:23.568Z,8.10
2018-03-26T08:09:26.138Z,8.10
2018-03-26T08:10:28.721Z,8.10
2018-03-26T08:11:31.343Z,8.10
2018-03-26T08:12:34.579Z,8.10
2018-03-26T08:13:37.140Z,8.10
2018-03-26T08:14:39.763Z,8.10
2018-03-26T08:15:42.239Z,8.20
2018-03-26T08:16:45.498Z,8.20
2018-03-26T08:17:48.735Z,8.20
2018-03-26T08:18:51.962Z,8.20
2018-03-26T08:19:54.425Z,8.20
2018-03-26T08:20:56.937Z,8.20
2018-03-26T08:22:00.213Z,8.10
2018-03-26T08:23:02.706Z,8.00
2018-03-26T08:24:05.996Z,8.00
2018-03-26T08:25:08.485Z,8.00
2018-03-26T08:26:11.817Z,8.00
2018-03-26T08:27:15.038Z,7.90
2018-03-26T08:28:17.591Z,7.90
2018-03-26T08:29:20.855Z,8.00
2018-03-26T08:30:23.381Z,7.90
2018-03-26T08:31:25.888Z,7.90
2018-03-26T08:32:28.463Z,7.90
2018-03-26T08:33:30.939Z,7.90
2018-03-26T08:34:33.450Z,7.90
2018-03-26T08:35:36.685Z,7.90
2018-03-26T08:36:39.930Z,7.90
2018-03-26T08:37:42.413Z,7.80
2018-03-26T08:38:44.906Z,7.90
2018-03-26T08:39:47.407Z,7.80
2018-03-26T08:40:50.768Z,7.70
2018-03-26T08:41:54.016Z,7.70
2018-03-26T08:42:56.525Z,7.70
2018-03-26T08:43:59.009Z,7.70
2018-03-26T08:45:01.503Z,7.70
2018-03-26T08:46:04.021Z,7.70
2018-03-26T08:47:06.936Z,7.70
2018-03-26T08:48:09.823Z,7.80
2018-03-26T08:49:12.282Z,7.80
2018-03-26T08:50:15.067Z,7.80
2018-03-26T08:51:17.446Z,7.80
2018-03-26T08:52:20.759Z,7.80
2018-03-26T08:53:23.232Z,7.80
2018-03-26T08:54:25.738Z,7.90
2018-03-26T08:55:29.063Z,7.90
2018-03-26T08:56:31.557Z,7.90
2018-03-26T08:57:34.137Z,7.90
2018-03-26T08:58:37.402Z,7.90
2018-03-26T08:59:42.886Z,7.90
2018-03-26T09:00:48.471Z,7.90
2018-03-26T09:01:52.009Z,7.90
2018-03-26T09:02:55.736Z,7.90
2018-03-26T09:03:59.145Z,7.90
2018-03-26T09:05:01.657Z,7.90
2018-03-26T09:06:04.930Z,8.00
2018-03-26T09:07:07.664Z,7.90
2018-03-26T09:08:10.233Z,7.90
2018-03-26T09:09:12.748Z,7.90
2018-03-26T09:10:15.220Z,8.00
2018-03-26T09:11:17.760Z,8.10
2018-03-26T09:12:20.279Z,8.10
2018-03-26T09:13:22.811Z,8.10
2018-03-26T09:14:25.281Z,8.10
2018-03-26T09:15:27.775Z,8.20
2018-03-26T09:16:30.263Z,8.10
2018-03-26T09:17:33.594Z,8.20
2018-03-26T09:18:36.016Z,8.20
2018-03-26T09:19:39.375Z,8.30
2018-03-26T09:20:43.411Z,8.30
2018-03-26T09:21:46.909Z,8.30
2018-03-26T09:22:49.405Z,8.30
2018-03-26T09:23:52.704Z,8.40
2018-03-26T09:24:55.201Z,8.30
2018-03-26T09:25:57.707Z,8.40
2018-03-26T09:27:00.184Z,8.40
2018-03-26T09:28:02.639Z,8.40
2018-03-26T09:29:05.914Z,8.40
2018-03-26T09:30:08.502Z,8.30
2018-03-26T09:31:11.044Z,8.40
2018-03-26T09:32:14.295Z,8.50
2018-03-26T09:33:16.778Z,8.50
2018-03-26T09:34:19.442Z,8.50
2018-03-26T09:35:22.681Z,8.50
2018-03-26T09:36:25.907Z,8.60
2018-03-26T09:37:28.508Z,8.50
2018-03-26T09:38:31.022Z,8.60
2018-03-26T09:39:33.487Z,8.60
2018-03-26T09:40:36.053Z,8.60
2018-03-26T09:41:39.308Z,8.60
2018-03-26T09:42:41.955Z,8.60
2018-03-26T09:43:45.316Z,8.60
2018-03-26T09:44:47.864Z,8.60
2018-03-26T09:45:51.094Z,8.60
2018-03-26T09:46:53.635Z,8.60
2018-03-26T09:47:56.876Z,8.60
2018-03-26T09:49:00.137Z,8.70
2018-03-26T09:50:03.430Z,8.70
2018-03-26T09:51:05.903Z,8.70
2018-03-26T09:52:08.444Z,8.70
2018-03-26T09:53:10.915Z,8.80
2018-03-26T09:54:13.385Z,8.70
2018-03-26T09:55:15.884Z,8.70
2018-03-26T09:56:19.154Z,8.70
2018-03-26T09:57:21.652Z,8.70
2018-03-26T09:58:24.886Z,8.80
2018-03-26T09:59:27.932Z,8.80
2018-03-26T10:00:36.835Z,8.80
2018-03-26T10:01:45.322Z,8.80
2018-03-26T10:02:47.842Z,8.90
2018-03-26T10:03:50.347Z,8.90
2018-03-26T10:04:52.930Z,9.00
2018-03-26T10:05:56.269Z,9.10
2018-03-26T10:06:59.352Z,9.10
2018-03-26T10:08:01.899Z,9.10
2018-03-26T10:09:04.534Z,9.10
2018-03-26T10:10:07.301Z,9.20
2018-03-26T10:11:10.590Z,9.20
2018-03-26T10:12:13.126Z,9.20
2018-03-26T10:13:15.614Z,9.10
2018-03-26T10:14:19.397Z,9.10
2018-03-26T10:15:22.013Z,9.10
2018-03-26T10:16:24.802Z,9.10
2018-03-26T10:17:28.678Z,9.10
2018-03-26T10:18:32.163Z,9.10
2018-03-26T10:19:35.084Z,9.10
2018-03-26T10:20:44.670Z,9.10
2018-03-26T10:21:47.245Z,9.10
2018-03-26T10:22:49.773Z,9.10
2018-03-26T10:23:52.463Z,9.10
2018-03-26T10:24:54.972Z,9.10
2018-03-26T10:25:58.202Z,9.10
2018-03-26T10:27:01.460Z,9.00
2018-03-26T10:28:04.012Z,9.00
2018-03-26T10:29:06.470Z,9.00
2018-03-26T10:30:08.974Z,9.10
2018-03-26T10:31:11.534Z,9.10
2018-03-26T10:32:14.030Z,9.10
2018-03-26T10:33:16.505Z,9.10
2018-03-26T10:34:19.740Z,9.10
2018-03-26T10:35:23.104Z,9.10
2018-03-26T10:36:25.646Z,9.10
2018-03-26T10:37:28.107Z,9.10
2018-03-26T10:38:30.605Z,9.10
2018-03-26T10:39:33.083Z,9.10
2018-03-26T10:40:36.341Z,9.10
2018-03-26T10:41:38.964Z,9.10
2018-03-26T10:42:42.196Z,9.20
2018-03-26T10:43:45.438Z,9.20
2018-03-26T10:44:48.705Z,9.20
2018-03-26T10:45:51.263Z,9.10
2018-03-26T10:46:53.755Z,9.20
2018-03-26T10:47:56.405Z,9.20
2018-03-26T10:48:58.887Z,9.20
2018-03-26T10:50:02.139Z,9.40
2018-03-26T10:51:05.573Z,9.40
2018-03-26T10:52:08.005Z,9.30
2018-03-26T10:53:11.283Z,9.20
2018-03-26T10:54:14.686Z,9.20
2018-03-26T10:55:17.983Z,9.30
2018-03-26T10:56:20.503Z,9.30
2018-03-26T10:57:22.968Z,9.30
2018-03-26T10:58:25.472Z,9.30
2018-03-26T10:59:27.941Z,9.20
2018-03-26T11:00:31.235Z,9.20
2018-03-26T11:01:34.452Z,9.20
2018-03-26T11:02:36.972Z,9.20
2018-03-26T11:03:39.492Z,9.30
2018-03-26T11:04:42.004Z,9.40
2018-03-26T11:05:44.480Z,9.40
2018-03-26T11:06:46.941Z,9.30
2018-03-26T11:07:50.216Z,9.20
2018-03-26T11:08:53.469Z,9.20
2018-03-26T11:09:55.971Z,9.10
2018-03-26T11:10:58.461Z,9.20
2018-03-26T11:12:00.917Z,9.20
2018-03-26T11:13:03.426Z,9.20
2018-03-26T11:14:06.698Z,9.20
2018-03-26T11:15:10.136Z,9.10
2018-03-26T11:16:13.407Z,9.10
2018-03-26T11:17:15.956Z,9.10
2018-03-26T11:18:18.542Z,9.10
2018-03-26T11:19:21.276Z,9.10
2018-03-26T11:20:23.773Z,9.00
2018-03-26T11:21:27.033Z,8.90
2018-03-26T11:22:29.531Z,8.90
2018-03-26T11:23:32.803Z,8.90
2018-03-26T11:24:35.371Z,8.90
2018-03-26T11:25:37.936Z,8.90
2018-03-26T11:26:41.182Z,8.80
2018-03-26T11:27:44.522Z,8.80
2018-03-26T11:28:47.823Z,8.70
2018-03-26T11:29:50.314Z,8.70
2018-03-26T11:30:52.826Z,8.70
2018-03-26T11:31:55.318Z,8.70
2018-03-26T11:32:57.859Z,8.70
2018-03-26T11:34:00.336Z,8.70
2018-03-26T11:35:02.831Z,8.70
2018-03-26T11:36:07.363Z,8.60
2018-03-26T11:37:09.958Z,8.60
2018-03-26T11:38:12.460Z,8.60
2018-03-26T11:39:15.700Z,8.60
2018-03-26T11:40:18.998Z,8.60
2018-03-26T11:41:22.695Z,8.60
2018-03-26T11:42:25.953Z,8.50
2018-03-26T11:43:28.424Z,8.50
2018-03-26T11:44:30.890Z,8.50
2018-03-26T11:45:34.211Z,8.50
2018-03-26T11:46:36.710Z,8.50
2018-03-26T11:47:39.300Z,8.40
2018-03-26T11:48:41.817Z,8.40
2018-03-26T11:49:44.350Z,8.40
2018-03-26T11:50:47.600Z,8.30
2018-03-26T11:51:50.077Z,8.30
2018-03-26T11:52:52.607Z,8.30
2018-03-26T11:53:55.035Z,8.20
2018-03-26T11:54:59.035Z,8.10
2018-03-26T11:56:01.502Z,8.10
2018-03-26T11:57:04.004Z,8.00
2018-03-26T11:58:06.499Z,8.00
2018-03-26T11:59:09.062Z,8.00
2018-03-26T12:00:11.543Z,7.90
2018-03-26T12:01:14.790Z,7.90
2018-03-26T12:02:17.264Z,7.90
2018-03-26T12:03:19.752Z,7.80
2018-03-26T12:04:22.281Z,7.80
2018-03-26T12:05:25.419Z,7.80
2018-03-26T12:06:27.894Z,7.80
2018-03-26T12:07:30.450Z,7.80
2018-03-26T12:08:33.003Z,7.80
2018-03-26T12:09:35.474Z,7.80
2018-03-26T12:10:38.131Z,7.70
2018-03-26T12:11:41.470Z,7.70
2018-03-26T12:12:44.829Z,7.70
2018-03-26T12:13:47.395Z,7.70
2018-03-26T12:14:49.922Z,7.70
2018-03-26T12:15:52.403Z,7.70
2018-03-26T12:16:55.665Z,7.60
2018-03-26T12:17:58.153Z,7.60
2018-03-26T12:19:01.400Z,7.50
2018-03-26T12:20:16.472Z,7.60
2018-03-26T12:21:19.060Z,7.50
2018-03-26T12:22:21.594Z,7.50
2018-03-26T12:23:35.843Z,7.50
2018-03-26T12:24:50.897Z,7.50
2018-03-26T12:25:53.383Z,7.50
2018-03-26T12:26:56.417Z,7.40
2018-03-26T12:28:11.507Z,7.40
2018-03-26T12:29:25.807Z,7.40
2018-03-26T12:30:28.388Z,7.30
2018-03-26T12:31:30.891Z,7.30
2018-03-26T12:32:34.118Z,7.20
2018-03-26T12:33:48.401Z,7.10
2018-03-26T12:35:02.616Z,7.10
2018-03-26T12:36:05.862Z,7.00
2018-03-26T12:37:09.125Z,7.00
2018-03-26T12:38:11.615Z,7.00
2018-03-26T12:39:14.163Z,7.00
2018-03-26T12:41:57.880Z,6.90
2018-03-26T12:43:00.432Z,6.90
2018-03-26T12:44:02.967Z,6.90
2018-03-26T12:45:17.358Z,6.80
2018-03-26T12:46:31.914Z,6.80
2018-03-26T12:47:34.388Z,6.80
2018-03-26T12:48:36.866Z,6.80
2018-03-26T12:49:39.465Z,6.80
2018-03-26T12:50:53.727Z,6.80
2018-03-26T12:52:08.217Z,6.80
2018-03-26T12:53:11.484Z,6.80
2018-03-26T12:54:13.986Z,6.70
2018-03-26T12:55:16.514Z,6.80
2018-03-26T12:56:19.005Z,6.70
2018-03-26T12:57:33.371Z,6.80
2018-03-26T12:58:51.634Z,6.70
2018-03-26T12:59:54.167Z,6.80
2018-03-26T13:01:08.778Z,6.80
2018-03-26T13:02:23.970Z,6.80
2018-03-26T13:03:26.506Z,6.80
2018-03-26T13:04:29.181Z,6.80
2018-03-26T13:05:32.702Z,6.80
2018-03-26T13:06:35.161Z,6.80
2018-03-26T13:07:37.703Z,6.80
2018-03-26T13:08:40.947Z,6.80
2018-03-26T13:09:44.178Z,6.80
2018-03-26T13:10:47.407Z,6.70
2018-03-26T13:11:49.875Z,6.70
2018-03-26T13:12:52.374Z,6.70
2018-03-26T13:13:55.679Z,6.70
2018-03-26T13:14:58.185Z,6.70
2018-03-26T13:16:00.653Z,6.70
2018-03-26T13:17:03.110Z,6.70
2018-03-26T13:18:05.644Z,6.60
2018-03-26T13:19:08.868Z,6.70
2018-03-26T13:20:12.264Z,6.70
2018-03-26T13:21:14.713Z,6.70
2018-03-26T13:22:17.227Z,6.70
2018-03-26T13:23:19.823Z,6.70
2018-03-26T13:24:22.303Z,6.70
2018-03-26T13:25:25.580Z,6.70
2018-03-26T13:26:28.828Z,6.70
2018-03-26T13:27:31.316Z,6.70
2018-03-26T13:28:34.533Z,6.70
2018-03-26T13:29:37.003Z,6.70
2018-03-26T13:30:39.522Z,6.70
2018-03-26T13:31:42.758Z,6.70
2018-03-26T13:32:46.048Z,6.70
2018-03-26T13:33:48.667Z,6.70
2018-03-26T13:34:51.144Z,6.70
2018-03-26T13:35:53.644Z,6.80
2018-03-26T13:36:56.118Z,6.80
2018-03-26T13:37:58.579Z,6.80
2018-03-26T13:39:01.179Z,6.80
2018-03-26T13:40:03.642Z,6.80
2018-03-26T13:41:06.103Z,6.80
2018-03-26T13:42:09.418Z,6.80
2018-03-26T13:43:11.948Z,6.80
2018-03-26T13:44:14.412Z,6.80
2018-03-26T13:45:17.647Z,6.80
2018-03-26T13:46:21.015Z,6.80
2018-03-26T13:47:23.497Z,6.80
2018-03-26T13:48:26.015Z,6.80
2018-03-26T13:49:28.497Z,6.80
2018-03-26T13:50:30.987Z,6.90
2018-03-26T13:51:33.539Z,6.90
2018-03-26T13:52:36.286Z,7.00
2018-03-26T13:53:38.779Z,7.00
2018-03-26T13:54:42.027Z,7.10
2018-03-26T13:55:44.513Z,7.00
2018-03-26T13:56:46.980Z,7.00
2018-03-26T13:57:49.495Z,7.00
2018-03-26T13:58:52.726Z,7.00
2018-03-26T13:59:55.994Z,7.00
2018-03-26T14:00:58.475Z,7.00